createdAt,value
2017-05-01T00:00:07.559Z,99.90
2017-05-01T00:02:36.053Z,99.90
2017-05-01T00:05:04.550Z,99.90
2017-05-01T00:07:33.088Z,99.90
2017-05-01T00:10:01.591Z,99.90
2017-05-01T00:12:30.097Z,99.90
2017-05-01T00:14:58.633Z,99.90
2017-05-01T00:17:27.125Z,99.90
2017-05-01T00:19:55.629Z,99.90
2017-05-01T00:22:24.163Z,99.90
2017-05-01T00:24:52.661Z,99.90
2017-05-01T00:27:21.164Z,99.90
2017-05-01T00:29:49.704Z,99.90
2017-05-01T00:32:18.208Z,99.90
2017-05-01T00:34:46.704Z,99.90
2017-05-01T00:37:15.244Z,99.90
2017-05-01T00:39:43.746Z,99.90
2017-05-01T00:42:12.252Z,99.90
2017-05-01T00:44:40.791Z,99.90
2017-05-01T00:47:09.296Z,99.90
2017-05-01T00:49:37.792Z,99.90
2017-05-01T00:52:06.322Z,99.90
2017-05-01T00:54:34.820Z,99.90
2017-05-01T00:57:03.319Z,99.90
2017-05-01T00:59:31.859Z,99.90
2017-05-01T01:02:00.360Z,99.90
2017-05-01T01:04:28.853Z,99.90
2017-05-01T01:06:57.649Z,99.90
2017-05-01T01:09:31.912Z,99.90
2017-05-01T01:12:00.441Z,99.90
2017-05-01T01:14:28.940Z,99.90
2017-05-01T01:16:57.445Z,99.90
2017-05-01T01:19:26.000Z,99.90
2017-05-01T01:21:54.501Z,99.90
2017-05-01T01:24:23.004Z,99.90
2017-05-01T01:26:51.544Z,99.90
2017-05-01T01:29:20.045Z,99.90
2017-05-01T01:31:48.559Z,99.90
2017-05-01T01:34:17.133Z,99.90
2017-05-01T01:36:45.664Z,99.90
2017-05-01T01:39:14.176Z,99.90
2017-05-01T01:41:42.743Z,99.90
2017-05-01T01:44:11.259Z,99.90
2017-05-01T01:46:39.768Z,99.90
2017-05-01T01:49:08.323Z,99.90
2017-05-01T01:51:36.844Z,99.90
2017-05-01T01:54:05.362Z,99.90
2017-05-01T01:56:33.929Z,99.90
2017-05-01T01:59:02.461Z,99.90
2017-05-01T02:01:30.984Z,99.90
2017-05-01T02:03:59.545Z,99.90
2017-05-01T02:06:28.075Z,99.90
2017-05-01T02:08:56.597Z,99.90
2017-05-01T02:11:25.155Z,99.90
2017-05-01T02:13:53.708Z,99.90
2017-05-01T02:16:22.237Z,99.90
2017-05-01T02:18:50.799Z,99.90
2017-05-01T02:21:19.320Z,99.90
2017-05-01T02:23:47.838Z,99.90
2017-05-01T02:26:16.399Z,99.90
2017-05-01T02:28:44.942Z,99.90
2017-05-01T02:31:13.478Z,99.90
2017-05-01T02:33:42.055Z,99.90
2017-05-01T02:36:10.585Z,99.90
2017-05-01T02:38:39.112Z,99.90
2017-05-01T02:41:07.675Z,99.90
2017-05-01T02:43:36.192Z,99.90
2017-05-01T02:46:04.720Z,99.90
2017-05-01T02:48:33.280Z,99.90
2017-05-01T02:51:01.813Z,99.90
2017-05-01T02:53:30.325Z,99.90
2017-05-01T02:55:58.899Z,99.90
2017-05-01T02:58:27.423Z,99.90
2017-05-01T03:00:55.960Z,99.90
2017-05-01T03:03:24.531Z,99.90
2017-05-01T03:05:53.041Z,99.90
2017-05-01T03:08:21.544Z,99.90
2017-05-01T03:10:50.121Z,99.90
2017-05-01T03:13:18.652Z,99.90
2017-05-01T03:15:47.174Z,99.90
2017-05-01T03:18:15.724Z,99.90
2017-05-01T03:20:44.246Z,99.90
2017-05-01T03:23:12.745Z,99.90
2017-05-01T03:25:41.301Z,99.90
2017-05-01T03:28:09.805Z,99.90
2017-05-01T03:30:38.315Z,99.90
2017-05-01T03:33:06.873Z,99.90
2017-05-01T03:35:35.369Z,99.90
2017-05-01T03:38:03.873Z,99.90
2017-05-01T03:40:32.408Z,99.90
2017-05-01T03:43:00.907Z,99.90
2017-05-01T03:45:29.413Z,99.90
2017-05-01T03:47:57.978Z,99.90
2017-05-01T03:50:26.480Z,99.90
2017-05-01T03:52:54.981Z,99.90
2017-05-01T03:55:23.513Z,99.90
2017-05-01T03:57:52.012Z,99.90
2017-05-01T04:00:20.513Z,99.90
2017-05-01T04:02:49.049Z,99.90
2017-05-01T04:05:17.550Z,99.90
2017-05-01T04:07:46.053Z,99.90
2017-05-01T04:10:14.588Z,99.90
2017-05-01T04:12:43.085Z,99.90
2017-05-01T04:15:11.583Z,99.90
2017-05-01T04:17:40.128Z,99.90
2017-05-01T04:20:08.638Z,99.90
2017-05-01T04:22:37.144Z,99.90
2017-05-01T04:25:05.678Z,99.90
2017-05-01T04:27:34.180Z,99.90
2017-05-01T04:30:02.687Z,99.90
2017-05-01T04:32:31.267Z,99.90
2017-05-01T04:34:59.767Z,99.90
2017-05-01T04:37:28.267Z,99.90
2017-05-01T04:39:56.805Z,99.90
2017-05-01T04:42:25.313Z,99.90
2017-05-01T04:44:53.818Z,99.90
2017-05-01T04:47:22.360Z,99.90
2017-05-01T04:49:50.852Z,99.90
2017-05-01T04:52:19.351Z,99.90
2017-05-01T04:54:47.902Z,99.90
2017-05-01T04:57:16.404Z,99.90
2017-05-01T04:59:44.899Z,99.90
2017-05-01T05:02:13.451Z,99.90
2017-05-01T05:04:41.957Z,99.90
2017-05-01T05:07:10.454Z,99.90
2017-05-01T05:09:39.003Z,99.90
2017-05-01T05:12:07.503Z,99.90
2017-05-01T05:14:36.017Z,99.90
2017-05-01T05:17:04.568Z,99.90
2017-05-01T05:19:33.072Z,99.90
2017-05-01T05:22:01.580Z,99.90
2017-05-01T05:24:30.145Z,99.90
2017-05-01T05:26:58.651Z,99.40
2017-05-01T05:29:27.155Z,96.30
2017-05-01T05:31:55.700Z,87.30
2017-05-01T05:34:24.209Z,73.40
2017-05-01T05:36:52.713Z,63.90
2017-05-01T05:39:21.258Z,59.00
2017-05-01T05:41:49.770Z,56.70
2017-05-01T05:44:18.277Z,55.10
2017-05-01T05:46:46.837Z,53.60
2017-05-01T05:49:15.347Z,53.50
2017-05-01T05:51:43.857Z,56.20
2017-05-01T05:54:12.406Z,51.50
2017-05-01T05:56:40.914Z,48.10
2017-05-01T05:59:09.423Z,49.20
2017-05-01T06:01:37.972Z,48.80
2017-05-01T06:04:06.477Z,47.90
2017-05-01T06:06:35.000Z,45.20
2017-05-01T06:09:03.759Z,43.80
2017-05-01T06:11:32.276Z,42.00
2017-05-01T06:14:00.788Z,42.30
2017-05-01T06:16:29.376Z,40.60
2017-05-01T06:18:57.948Z,40.60
2017-05-01T06:21:26.526Z,39.50
2017-05-01T06:23:55.073Z,36.90
2017-05-01T06:26:23.587Z,36.70
2017-05-01T06:28:52.102Z,34.00
2017-05-01T06:31:20.654Z,34.30
2017-05-01T06:33:49.165Z,34.20
2017-05-01T06:36:17.681Z,34.80
2017-05-01T06:38:46.225Z,33.10
2017-05-01T06:41:14.732Z,31.40
2017-05-01T06:43:43.239Z,30.50
2017-05-01T06:46:11.780Z,29.70
2017-05-01T06:48:40.284Z,29.70
2017-05-01T06:51:08.790Z,33.20
2017-05-01T06:53:37.365Z,32.40
2017-05-01T06:56:05.867Z,31.40
2017-05-01T06:58:34.376Z,32.70
2017-05-01T07:01:02.923Z,34.30
2017-05-01T07:03:31.424Z,31.70
2017-05-01T07:05:59.932Z,33.60
2017-05-01T07:08:28.477Z,33.50
2017-05-01T07:10:56.978Z,32.00
2017-05-01T07:13:25.481Z,30.40
2017-05-01T07:15:54.017Z,31.10
2017-05-01T07:18:22.515Z,32.00
2017-05-01T07:20:51.020Z,33.90
2017-05-01T07:23:19.563Z,35.40
2017-05-01T07:25:48.060Z,33.30
2017-05-01T07:28:16.558Z,33.70
2017-05-01T07:30:45.101Z,32.30
2017-05-01T07:33:13.637Z,31.60
2017-05-01T07:35:42.143Z,30.60
2017-05-01T07:38:10.689Z,30.30
2017-05-01T07:40:39.192Z,30.40
2017-05-01T07:43:07.697Z,29.50
2017-05-01T07:45:36.245Z,29.30
2017-05-01T07:48:04.955Z,28.40
2017-05-01T07:50:33.457Z,29.80
2017-05-01T07:53:03.863Z,29.50
2017-05-01T07:55:35.735Z,30.90
2017-05-01T07:58:04.289Z,31.60
2017-05-01T08:00:32.839Z,30.40
2017-05-01T08:03:01.340Z,29.50
2017-05-01T08:05:29.913Z,28.50
2017-05-01T08:07:58.427Z,27.90
2017-05-01T08:10:26.924Z,29.10
2017-05-01T08:12:55.458Z,27.70
2017-05-01T08:15:23.966Z,29.60
2017-05-01T08:17:52.477Z,28.40
2017-05-01T08:20:21.048Z,27.50
2017-05-01T08:22:49.553Z,27.60
2017-05-01T08:25:18.063Z,28.10
2017-05-01T08:27:46.600Z,26.40
2017-05-01T08:30:15.104Z,26.50
2017-05-01T08:32:43.598Z,26.80
2017-05-01T08:35:12.136Z,26.40
2017-05-01T08:37:40.648Z,26.40
2017-05-01T08:40:09.162Z,26.90
2017-05-01T08:42:37.722Z,27.50
2017-05-01T08:45:06.235Z,26.00
2017-05-01T08:47:34.740Z,25.80
2017-05-01T08:50:03.304Z,25.70
2017-05-01T08:52:31.812Z,24.90
2017-05-01T08:55:00.333Z,24.00
2017-05-01T08:57:28.874Z,24.00
2017-05-01T08:59:57.385Z,24.90
2017-05-01T09:02:25.905Z,25.80
2017-05-01T09:04:54.459Z,24.50
2017-05-01T09:07:22.961Z,24.20
2017-05-01T09:09:51.454Z,25.50
2017-05-01T09:12:19.992Z,26.20
2017-05-01T09:14:48.521Z,27.80
2017-05-01T09:17:17.017Z,26.40
2017-05-01T09:19:45.553Z,25.00
2017-05-01T09:22:14.073Z,26.30
2017-05-01T09:24:42.580Z,30.20
2017-05-01T09:27:19.137Z,32.60
2017-05-01T09:29:48.327Z,36.90
2017-05-01T09:32:16.830Z,38.60
2017-05-01T09:34:45.367Z,40.10
2017-05-01T09:37:13.876Z,39.80
2017-05-01T09:42:41.018Z,38.10
2017-05-01T09:45:09.541Z,38.80
2017-05-01T09:47:38.041Z,37.30
2017-05-01T09:50:06.586Z,35.60
2017-05-01T09:52:35.092Z,34.80
2017-05-01T09:55:03.627Z,35.50
2017-05-01T09:57:32.178Z,35.30
2017-05-01T10:00:00.684Z,38.60
2017-05-01T10:02:29.193Z,42.10
2017-05-01T10:04:57.745Z,42.60
2017-05-01T10:07:26.246Z,44.50
2017-05-01T10:09:54.748Z,44.20
2017-05-01T10:12:23.403Z,44.70
2017-05-01T10:14:51.914Z,46.60
2017-05-01T10:17:20.452Z,46.40
2017-05-01T10:19:49.021Z,46.90
2017-05-01T10:22:17.658Z,47.30
2017-05-01T10:24:46.159Z,47.60
2017-05-01T10:27:14.715Z,47.50
2017-05-01T10:29:43.230Z,47.40
2017-05-01T10:32:11.736Z,47.60
2017-05-01T10:34:40.314Z,48.70
2017-05-01T10:37:08.825Z,49.00
2017-05-01T10:39:37.335Z,49.50
2017-05-01T10:42:05.878Z,47.90
2017-05-01T10:44:34.396Z,48.90
2017-05-01T10:47:02.905Z,47.30
2017-05-01T10:49:31.453Z,46.90
2017-05-01T10:51:59.959Z,45.10
2017-05-01T10:54:28.461Z,45.20
2017-05-01T10:56:57.137Z,44.90
2017-05-01T10:59:25.709Z,45.10
2017-05-01T11:01:54.232Z,45.90
2017-05-01T11:04:22.782Z,43.70
2017-05-01T11:06:51.283Z,44.50
2017-05-01T11:09:19.781Z,43.70
2017-05-01T11:11:48.321Z,43.00
2017-05-01T11:14:16.838Z,42.80
2017-05-01T11:16:45.358Z,41.90
2017-05-01T11:19:13.904Z,40.40
2017-05-01T11:21:42.641Z,39.30
2017-05-01T11:24:11.163Z,41.00
2017-05-01T11:26:39.737Z,40.30
2017-05-01T11:29:08.260Z,41.40
2017-05-01T11:31:36.765Z,42.60
2017-05-01T11:34:05.368Z,43.60
2017-05-01T11:36:33.899Z,43.70
2017-05-01T11:39:02.435Z,42.00
2017-05-01T11:41:31.023Z,41.40
2017-05-01T11:43:59.556Z,42.10
2017-05-01T11:46:28.133Z,41.50
2017-05-01T11:48:56.712Z,41.70
2017-05-01T11:51:25.243Z,41.60
2017-05-01T11:53:53.771Z,41.50
2017-05-01T11:56:22.350Z,41.80
2017-05-01T11:58:50.883Z,40.80
2017-05-01T12:01:19.415Z,40.30
2017-05-01T12:03:47.981Z,40.30
2017-05-01T12:06:16.506Z,40.70
2017-05-01T12:08:45.020Z,40.70
2017-05-01T12:11:13.618Z,40.50
2017-05-01T12:13:42.139Z,41.60
2017-05-01T12:16:10.664Z,41.40
2017-05-01T12:18:39.235Z,40.50
2017-05-01T12:21:07.758Z,40.70
2017-05-01T12:23:36.270Z,40.20
2017-05-01T12:26:04.826Z,40.10
2017-05-01T12:28:33.349Z,40.60
2017-05-01T12:31:01.881Z,39.70
2017-05-01T12:33:30.531Z,39.50
2017-05-01T12:35:59.043Z,37.70
2017-05-01T12:38:27.567Z,38.40
2017-05-01T12:40:56.878Z,37.40
2017-05-01T12:43:25.399Z,37.70
2017-05-01T12:45:53.921Z,39.40
2017-05-01T12:48:22.484Z,38.50
2017-05-01T12:50:51.014Z,38.80
2017-05-01T12:53:19.549Z,38.10
2017-05-01T12:55:48.116Z,38.00
2017-05-01T12:58:16.639Z,38.00
2017-05-01T13:00:45.158Z,38.20
2017-05-01T13:03:13.721Z,37.50
2017-05-01T13:05:42.240Z,36.60
2017-05-01T13:08:10.776Z,37.10
2017-05-01T13:10:39.339Z,35.90
2017-05-01T13:13:07.871Z,36.30
2017-05-01T13:15:36.396Z,36.30
2017-05-01T13:18:04.970Z,36.90
2017-05-01T13:20:33.492Z,36.90
2017-05-01T13:23:02.037Z,36.90
2017-05-01T13:25:30.603Z,36.70
2017-05-01T13:27:59.122Z,37.20
2017-05-01T13:30:27.639Z,37.30
2017-05-01T13:32:56.216Z,37.70
2017-05-01T13:35:24.750Z,37.30
2017-05-01T13:37:53.275Z,36.80
2017-05-01T13:40:21.851Z,37.10
2017-05-01T13:42:50.367Z,36.90
2017-05-01T13:45:18.892Z,37.20
2017-05-01T13:47:47.450Z,37.50
2017-05-01T13:50:15.961Z,37.30
2017-05-01T13:52:44.488Z,37.40
2017-05-01T13:55:13.100Z,37.80
2017-05-01T13:57:41.630Z,37.80
2017-05-01T14:00:10.278Z,38.00
2017-05-01T14:02:38.865Z,37.70
2017-05-01T14:05:07.425Z,38.10
2017-05-01T14:07:35.966Z,38.20
2017-05-01T14:10:04.546Z,38.50
2017-05-01T14:12:33.102Z,38.20
2017-05-01T14:15:01.635Z,39.90
2017-05-01T14:17:30.199Z,40.50
2017-05-01T14:19:58.723Z,42.00
2017-05-01T14:22:27.394Z,41.90
2017-05-01T14:24:55.979Z,41.40
2017-05-01T14:27:24.528Z,42.80
2017-05-01T14:29:53.056Z,42.60
2017-05-01T14:32:21.714Z,43.70
2017-05-01T14:34:50.255Z,44.00
2017-05-01T14:37:18.796Z,43.60
2017-05-01T14:39:47.411Z,43.90
2017-05-01T14:42:15.958Z,43.80
2017-05-01T14:44:44.950Z,42.80
2017-05-01T14:47:13.692Z,43.10
2017-05-01T14:49:42.248Z,42.80
2017-05-01T14:52:10.778Z,42.70
2017-05-01T14:54:39.358Z,42.00
2017-05-01T14:57:07.889Z,42.50
2017-05-01T14:59:36.573Z,42.40
2017-05-01T15:02:05.199Z,43.10
2017-05-01T15:04:33.750Z,42.40
2017-05-01T15:07:03.973Z,41.90
2017-05-01T15:09:32.749Z,41.80
2017-05-01T15:12:01.314Z,42.00
2017-05-01T15:14:29.857Z,41.60
2017-05-01T15:16:58.491Z,41.80
2017-05-01T15:19:27.032Z,41.80
2017-05-01T15:21:55.573Z,41.60
2017-05-01T15:24:24.219Z,41.10
2017-05-01T15:26:52.759Z,42.10
2017-05-01T15:29:21.297Z,41.80
2017-05-01T15:31:50.027Z,41.50
2017-05-01T15:34:19.015Z,41.40
2017-05-01T15:36:47.553Z,41.60
2017-05-01T15:39:16.127Z,41.50
2017-05-01T15:41:44.675Z,41.60
2017-05-01T15:44:13.217Z,41.80
2017-05-01T15:46:41.807Z,42.20
2017-05-01T15:49:10.321Z,42.20
2017-05-01T15:51:38.835Z,41.40
2017-05-01T15:54:07.413Z,41.20
2017-05-01T15:56:35.981Z,41.50
2017-05-01T15:59:04.515Z,41.90
2017-05-01T16:01:33.246Z,42.10
2017-05-01T16:04:01.794Z,42.60
2017-05-01T16:06:30.337Z,42.60
2017-05-01T16:08:58.931Z,43.10
2017-05-01T16:11:27.669Z,43.60
2017-05-01T16:13:56.202Z,43.50
2017-05-01T16:16:24.942Z,43.10
2017-05-01T16:18:53.575Z,43.60
2017-05-01T16:21:22.115Z,43.60
2017-05-01T16:23:51.345Z,43.60
2017-05-01T16:26:19.895Z,43.50
2017-05-01T16:28:48.423Z,43.70
2017-05-01T16:31:17.109Z,43.80
2017-05-01T16:33:45.677Z,43.90
2017-05-01T16:36:14.351Z,43.90
2017-05-01T16:38:42.944Z,44.10
2017-05-01T16:41:11.494Z,44.10
2017-05-01T16:43:40.822Z,44.20
2017-05-01T16:46:09.530Z,43.80
2017-05-01T16:48:38.133Z,44.30
2017-05-01T16:51:06.655Z,44.10
2017-05-01T16:53:35.232Z,44.30
2017-05-01T16:56:03.776Z,44.40
2017-05-01T16:58:32.526Z,44.80
2017-05-01T17:01:01.143Z,45.10
2017-05-01T17:03:29.684Z,45.80
2017-05-01T17:05:58.212Z,46.30
2017-05-01T17:08:26.788Z,46.60
2017-05-01T17:10:55.308Z,46.90
2017-05-01T17:13:23.842Z,46.90
2017-05-01T17:15:52.419Z,46.60
2017-05-01T17:18:20.942Z,46.60
2017-05-01T17:20:49.482Z,47.10
2017-05-01T17:23:18.063Z,47.30
2017-05-01T17:25:46.582Z,47.10
2017-05-01T17:28:15.104Z,46.90
2017-05-01T17:30:43.665Z,47.10
2017-05-01T17:33:12.193Z,47.40
2017-05-01T17:35:40.739Z,47.70
2017-05-01T17:38:09.321Z,48.40
2017-05-01T17:40:37.899Z,48.30
2017-05-01T17:43:06.428Z,48.80
2017-05-01T17:45:35.022Z,49.10
2017-05-01T17:48:03.597Z,49.10
2017-05-01T17:50:32.333Z,49.50
2017-05-01T17:53:01.083Z,49.00
2017-05-01T17:55:29.633Z,49.70
2017-05-01T17:57:58.176Z,49.70
2017-05-01T18:00:26.749Z,49.60
2017-05-01T18:02:55.271Z,50.10
2017-05-01T18:05:23.800Z,50.30
2017-05-01T18:07:52.387Z,50.00
2017-05-01T18:10:20.919Z,50.40
2017-05-01T18:12:49.459Z,50.00
2017-05-01T18:15:18.037Z,50.00
2017-05-01T18:17:46.569Z,50.40
2017-05-01T18:20:15.112Z,50.70
2017-05-01T18:22:43.720Z,50.50
2017-05-01T18:25:12.309Z,50.50
2017-05-01T18:27:40.894Z,51.80
2017-05-01T18:30:09.484Z,52.10
2017-05-01T18:32:38.050Z,51.50
2017-05-01T18:35:06.599Z,51.40
2017-05-01T18:37:35.178Z,51.60
2017-05-01T18:40:03.839Z,52.00
2017-05-01T18:42:32.372Z,52.20
2017-05-01T18:45:00.948Z,52.50
2017-05-01T18:47:29.503Z,53.30
2017-05-01T18:49:58.056Z,53.60
2017-05-01T18:52:26.658Z,53.30
2017-05-01T18:54:55.191Z,54.20
2017-05-01T18:57:23.718Z,54.30
2017-05-01T18:59:52.297Z,54.20
2017-05-01T19:02:20.820Z,54.20
2017-05-01T19:04:49.359Z,55.40
2017-05-01T19:07:17.981Z,55.90
2017-05-01T19:09:46.505Z,56.30
2017-05-01T19:12:15.030Z,57.40
2017-05-01T19:14:43.589Z,57.90
2017-05-01T19:17:12.141Z,58.00
2017-05-01T19:19:40.683Z,59.60
2017-05-01T19:22:09.300Z,59.80
2017-05-01T19:24:37.874Z,60.30
2017-05-01T19:27:06.585Z,61.30
2017-05-01T19:29:35.214Z,62.50
2017-05-01T19:32:03.778Z,63.10
2017-05-01T19:34:32.351Z,63.90
2017-05-01T19:37:00.931Z,64.70
2017-05-01T19:39:29.596Z,66.70
2017-05-01T19:41:58.127Z,68.60
2017-05-01T19:44:26.689Z,70.20
2017-05-01T19:46:55.217Z,71.10
2017-05-01T19:49:23.764Z,71.50
2017-05-01T19:51:53.131Z,72.60
2017-05-01T19:54:21.690Z,72.80
2017-05-01T19:56:50.246Z,74.50
2017-05-01T19:59:18.838Z,76.40
2017-05-01T20:01:47.570Z,78.30
2017-05-01T20:04:16.164Z,80.00
2017-05-01T20:06:45.026Z,80.90
2017-05-01T20:09:13.628Z,80.80
2017-05-01T20:11:42.185Z,82.70
2017-05-01T20:14:10.828Z,83.80
2017-05-01T20:16:39.401Z,83.80
2017-05-01T20:19:08.635Z,85.00
2017-05-01T20:21:37.255Z,88.20
2017-05-01T20:24:06.020Z,88.60
2017-05-01T20:26:34.632Z,89.80
2017-05-01T20:29:03.241Z,90.00
2017-05-01T20:31:31.768Z,90.50
2017-05-01T20:34:00.298Z,90.80
2017-05-01T20:36:28.888Z,91.50
2017-05-01T20:38:57.416Z,91.70
2017-05-01T20:41:25.942Z,92.50
2017-05-01T20:43:55.275Z,92.20
2017-05-01T20:46:23.841Z,88.00
2017-05-01T20:48:52.398Z,83.10
2017-05-01T20:51:20.995Z,81.50
2017-05-01T20:53:49.558Z,79.50
2017-05-01T20:56:18.130Z,79.00
2017-05-01T20:58:46.786Z,78.30
2017-05-01T21:01:15.353Z,78.30
2017-05-01T21:03:43.942Z,78.30
2017-05-01T21:06:12.546Z,77.60
2017-05-01T21:08:41.125Z,77.20
2017-05-01T21:11:09.664Z,76.70
2017-05-01T21:13:38.408Z,76.90
2017-05-01T21:16:06.970Z,76.80
2017-05-01T21:18:35.519Z,76.10
2017-05-01T21:21:04.103Z,76.60
2017-05-01T21:23:32.662Z,77.00
2017-05-01T21:26:01.214Z,77.00
2017-05-01T21:28:29.807Z,77.70
2017-05-01T21:30:58.377Z,78.10
2017-05-01T21:33:27.251Z,79.50
2017-05-01T21:35:56.773Z,80.40
2017-05-01T21:38:26.800Z,81.00
2017-05-01T21:40:57.683Z,80.60
2017-05-01T21:43:26.615Z,81.00
2017-05-01T21:45:55.837Z,81.30
2017-05-01T21:48:29.671Z,81.50
2017-05-01T21:51:00.431Z,80.90
2017-05-01T21:53:29.586Z,81.40
2017-05-01T21:55:58.251Z,81.20
2017-05-01T21:58:27.195Z,81.20
2017-05-01T22:00:55.925Z,81.20
2017-05-01T22:03:24.562Z,81.70
2017-05-01T22:05:53.269Z,83.20
2017-05-01T22:08:21.953Z,81.90
2017-05-01T22:10:50.714Z,82.50
2017-05-01T22:13:19.334Z,82.40
2017-05-01T22:15:48.010Z,82.10
2017-05-01T22:18:16.621Z,83.10
2017-05-01T22:20:46.199Z,83.80
2017-05-01T22:23:15.020Z,84.30
2017-05-01T22:25:45.515Z,85.10
2017-05-01T22:28:18.203Z,84.90
2017-05-01T22:30:53.635Z,85.40
2017-05-01T22:33:24.098Z,85.30
2017-05-01T22:35:53.092Z,85.80
2017-05-01T22:38:21.973Z,85.50
2017-05-01T22:40:53.713Z,85.30
2017-05-01T22:43:22.320Z,85.90
2017-05-01T22:45:51.749Z,85.70
2017-05-01T22:48:21.410Z,85.80
2017-05-01T22:50:50.087Z,85.80
2017-05-01T22:53:19.465Z,85.60
2017-05-01T22:55:48.151Z,86.80
2017-05-01T22:58:16.791Z,86.50
2017-05-01T23:00:45.564Z,87.20
2017-05-01T23:03:14.227Z,87.10
2017-05-01T23:05:42.898Z,89.00
2017-05-01T23:08:11.622Z,90.00
2017-05-01T23:10:40.275Z,89.90
2017-05-01T23:13:09.696Z,90.60
2017-05-01T23:15:43.072Z,90.50
2017-05-01T23:18:11.641Z,90.60
2017-05-01T23:20:40.327Z,91.60
2017-05-01T23:23:08.966Z,91.80
2017-05-01T23:25:37.600Z,92.40
2017-05-01T23:28:06.254Z,92.80
2017-05-01T23:30:35.444Z,93.60
2017-05-01T23:33:04.078Z,93.70
2017-05-01T23:35:33.172Z,94.40
2017-05-01T23:38:01.767Z,95.00
2017-05-01T23:40:30.491Z,95.80
2017-05-01T23:42:59.176Z,96.60
2017-05-01T23:45:27.791Z,97.40
2017-05-01T23:47:56.465Z,97.70
2017-05-01T23:50:26.992Z,98.10
2017-05-01T23:52:57.702Z,97.80
2017-05-01T23:55:27.443Z,98.60
2017-05-01T23:57:58.460Z,98.00
